• Join FlightAware (Why Join?)
  • Login
  • US Flag 
08:01AM EDT


 

Airport Tracker/Info


-or-


 

Live Flight TrackerFlight Track Log ✈ DAL6091 ✈ 27-Apr-2013 ✈ KRIC - KJFK

Flight Track Log - Related Links

Times and Time Zones

All times are in EDT time to prevent confusion due to time zone crossing. See the DAL6091 flight status page for this flight to view local times or setup timezone preferences in your user account.

Time Position Orientation Groundspeed Altitude Reporting Facility
EDT Latitude Longitude Course Direction KTS MPH feet Rate Location/Type
12:48PM 37.4675 -77.2325 45° Northeast 178 205 4,200  Level Washington Center
12:49PM 37.4997 -77.1703 57° Northeast 168 193 6,300 2,040 Climbing Washington Center
12:50PM 37.7271 -77.0729 38° Northeast  Level FlightAware Approximate
12:50PM 37.5361 -77.0978 58° Northeast 194 223 8,400  Level Washington Center
12:51PM 37.8052 -76.9948 38° Northeast  Level FlightAware Approximate
12:51PM 37.5744 -77.0172 59° Northeast 237 273 9,000  Level Washington Center
12:52PM 37.8834 -76.9167 38° Northeast  Level FlightAware Approximate
12:52PM 37.6172 -76.9342 57° Northeast 261 300 9,400  Level Washington Center
12:53PM 37.9615 -76.8385 38° Northeast  Level FlightAware Approximate
12:53PM 37.6578 -76.8458 60° Northeast 280 322 11,100  Level Washington Center
12:54PM 38.0329 -76.7505 45° Northeast  Level FlightAware Approximate
12:54PM 37.7047 -76.7494 58° Northeast 297 342 12,800  Level Washington Center
12:55PM 37.7783 -76.6847 35° Northeast 306 352 14,300 1,440 Climbing Washington Center
12:56PM 37.8722 -76.6783 North 306 352 15,800 1,320 Climbing Washington Center
12:57PM 37.9681 -76.6717 North 319 367 17,000 600 Climbing Washington Center
12:58PM 38.0703 -76.6653 North 345 397 17,000  Level Washington Center
12:59PM 38.1567 -76.5872 35° Northeast 350 403 17,000  Level Washington Center
01:00PM 38.2283 -76.4850 48° Northeast 363 418 17,000  Level Washington Center
01:01PM 38.2997 -76.3881 47° Northeast 368 423 17,000  Level Washington Center
01:02PM 38.3794 -76.3147 36° Northeast 363 418 17,000  Level Washington Center
01:03PM 38.4633 -76.2386 35° Northeast 363 418 17,000  Level Washington Center
01:04PM 38.5450 -76.1625 36° Northeast 363 418 17,000 -60 Level Washington Center
01:05PM 38.6225 -76.0939 35° Northeast 369 425 16,900 -60 Descending Washington Center
01:06PM 38.7042 -76.0067 40° Northeast 369 425 16,900  Level Washington Center
01:07PM 38.7628 -75.8978 55° Northeast 364 419 16,900  Level Washington Center
01:08PM 38.8236 -75.7861 55° Northeast 370 426 16,900  Level Washington Center
01:09PM 38.8819 -75.6717 57° Northeast 380 437 16,900  Level Washington Center
01:10PM 38.9403 -75.5622 56° Northeast 380 437 16,900  Level Washington Center
01:11PM 39.0028 -75.4475 55° Northeast 380 437 16,900  Level Washington Center
01:12PM 39.0611 -75.3322 57° Northeast 380 437 16,900  Level Washington Center
01:13PM 39.1233 -75.2197 54° Northeast 380 437 16,900  Level Washington Center
01:14PM 39.1811 -75.1069 57° Northeast 380 437 16,900  Level Washington Center
01:15PM 39.2411 -74.9914 56° Northeast 380 437 16,900  Level Washington Center
01:16PM 39.3008 -74.8781 56° Northeast 380 437 16,900  Level Washington Center
01:19PM 39.4425 -74.6069 56° Northeast 362 417 16,900  Level New York Center
01:20PM 39.4958 -74.5050 56° Northeast 346 398 16,900  Level New York Center
01:21PM 39.5447 -74.4106 56° Northeast 340 391 17,000  Climbing New York Center
01:22PM 39.6064 -74.3006 54° Northeast 340 391 17,000  Level New York Center
01:23PM 39.6594 -74.2008 55° Northeast 340 391 17,000  Level New York Center
01:24PM 39.7244 -74.1150 45° Northeast 340 391 17,000 -420 Level New York Center
01:25PM 39.7889 -74.0450 40° Northeast 330 380 16,200 -1,380 Descending New York Center
01:26PM 39.8639 -73.9756 35° Northeast 330 380 14,400 -2,160 Descending New York Center
01:27PM 39.9425 -73.9142 31° Northeast 310 357 11,900 -1,800 Descending New York Center
01:28PM 40.0128 -73.8633 29° Northeast 300 345 10,900 -480 Descending New York Center
01:29PM 40.0769 -73.8742 353° North 258 297 11,000 -300 Climbing New York Center
01:30PM 40.1467 -73.8394 21° North 253 291 10,300 -840 Descending New York Center
01:30PM 40.1833 -73.8000 39° Northeast 265 305 9,700 -1,140 Descending New York TRACON
01:31PM 40.2500 -73.7500 30° Northeast 255 293 8,600 -1,260 Descending New York TRACON
01:32PM 40.3167 -73.7167 21° North 254 292 7,200 -1,500 Descending New York TRACON
01:33PM 40.3667 -73.6667 37° Northeast 245 282 5,700 -1,620 Descending New York TRACON
01:34PM 40.4333 -73.6333 21° North 232 267 4,000 -1,440 Descending New York TRACON
01:35PM 40.4833 -73.6333 360° North 220 253 2,900 -1,080 Descending New York TRACON
01:36PM 40.5333 -73.6667 333° Northwest 191 220 1,900 -1,020 Descending New York TRACON